sensor_id;sensor_type;location;lat;lon;timestamp;P1;durP1;ratioP1;P2;durP2;ratioP2
1505;SDS011;744;51.436;7.356;2023-02-28T00:01:04;4.73;;;3.30;;
1505;SDS011;744;51.436;7.356;2023-02-28T00:03:31;4.03;;;3.10;;
1505;SDS011;744;51.436;7.356;2023-02-28T00:06:02;3.63;;;2.77;;
1505;SDS011;744;51.436;7.356;2023-02-28T00:08:29;4.30;;;3.50;;
1505;SDS011;744;51.436;7.356;2023-02-28T00:10:59;2.60;;;2.40;;
1505;SDS011;744;51.436;7.356;2023-02-28T00:13:27;4.47;;;3.20;;
1505;SDS011;744;51.436;7.356;2023-02-28T00:16:05;3.07;;;2.70;;
1505;SDS011;744;51.436;7.356;2023-02-28T00:18:34;3.40;;;3.10;;
1505;SDS011;744;51.436;7.356;2023-02-28T00:21:01;3.03;;;2.73;;
1505;SDS011;744;51.436;7.356;2023-02-28T00:23:28;2.90;;;2.60;;
1505;SDS011;744;51.436;7.356;2023-02-28T00:25:55;5.77;;;3.70;;
1505;SDS011;744;51.436;7.356;2023-02-28T00:28:22;3.00;;;2.77;;
1505;SDS011;744;51.436;7.356;2023-02-28T00:30:48;3.90;;;3.40;;
1505;SDS011;744;51.436;7.356;2023-02-28T00:33:15;3.50;;;3.20;;
1505;SDS011;744;51.436;7.356;2023-02-28T00:35:42;5.20;;;3.60;;
1505;SDS011;744;51.436;7.356;2023-02-28T00:38:13;5.80;;;3.57;;
1505;SDS011;744;51.436;7.356;2023-02-28T00:40:40;3.50;;;3.20;;
1505;SDS011;744;51.436;7.356;2023-02-28T00:43:06;4.43;;;3.97;;
1505;SDS011;744;51.436;7.356;2023-02-28T00:45:33;5.57;;;5.00;;
1505;SDS011;744;51.436;7.356;2023-02-28T00:48:00;5.20;;;4.80;;
1505;SDS011;744;51.436;7.356;2023-02-28T00:50:27;5.50;;;4.97;;
1505;SDS011;744;51.436;7.356;2023-02-28T00:52:54;6.40;;;4.17;;
1505;SDS011;744;51.436;7.356;2023-02-28T00:55:21;4.10;;;3.60;;
1505;SDS011;744;51.436;7.356;2023-02-28T00:57:47;3.43;;;3.13;;
1505;SDS011;744;51.436;7.356;2023-02-28T01:00:14;5.57;;;3.93;;
1505;SDS011;744;51.436;7.356;2023-02-28T01:02:41;6.07;;;5.47;;
1505;SDS011;744;51.436;7.356;2023-02-28T01:05:08;5.50;;;4.40;;
1505;SDS011;744;51.436;7.356;2023-02-28T01:07:35;7.23;;;5.00;;
1505;SDS011;744;51.436;7.356;2023-02-28T01:10:01;5.67;;;5.07;;
1505;SDS011;744;51.436;7.356;2023-02-28T01:12:28;9.37;;;5.77;;
1505;SDS011;744;51.436;7.356;2023-02-28T01:14:56;5.33;;;4.83;;
1505;SDS011;744;51.436;7.356;2023-02-28T01:17:23;4.97;;;4.53;;
1505;SDS011;744;51.436;7.356;2023-02-28T01:19:50;6.57;;;4.87;;
1505;SDS011;744;51.436;7.356;2023-02-28T01:22:21;4.40;;;3.90;;
1505;SDS011;744;51.436;7.356;2023-02-28T01:24:48;6.17;;;4.43;;
1505;SDS011;744;51.436;7.356;2023-02-28T01:27:14;5.90;;;5.30;;
1505;SDS011;744;51.436;7.356;2023-02-28T01:29:41;6.50;;;4.87;;
1505;SDS011;744;51.436;7.356;2023-02-28T01:32:08;4.13;;;3.77;;
1505;SDS011;744;51.436;7.356;2023-02-28T01:34:35;5.67;;;4.83;;
1505;SDS011;744;51.436;7.356;2023-02-28T01:37:01;4.90;;;4.40;;
1505;SDS011;744;51.436;7.356;2023-02-28T01:39:29;4.93;;;3.90;;
1505;SDS011;744;51.436;7.356;2023-02-28T01:41:56;4.37;;;3.93;;
1505;SDS011;744;51.436;7.356;2023-02-28T01:47:26;6.50;;;3.93;;
1505;SDS011;744;51.436;7.356;2023-02-28T01:49:56;3.83;;;2.97;;
1505;SDS011;744;51.436;7.356;2023-02-28T01:52:24;3.57;;;3.23;;
1505;SDS011;744;51.436;7.356;2023-02-28T01:54:52;4.17;;;3.20;;
1505;SDS011;744;51.436;7.356;2023-02-28T01:57:23;6.23;;;4.03;;
1505;SDS011;744;51.436;7.356;2023-02-28T01:59:54;3.70;;;3.33;;
1505;SDS011;744;51.436;7.356;2023-02-28T02:02:25;6.20;;;3.40;;
1505;SDS011;744;51.436;7.356;2023-02-28T02:04:58;4.30;;;2.40;;
1505;SDS011;744;51.436;7.356;2023-02-28T02:07:32;3.83;;;3.43;;
1505;SDS011;744;51.436;7.356;2023-02-28T02:10:06;3.13;;;2.90;;
1505;SDS011;744;51.436;7.356;2023-02-28T02:12:52;3.60;;;3.27;;
1505;SDS011;744;51.436;7.356;2023-02-28T02:16:23;6.47;;;3.27;;
1505;SDS011;744;51.436;7.356;2023-02-28T02:21:16;3.90;;;3.50;;
1505;SDS011;744;51.436;7.356;2023-02-28T02:23:58;3.53;;;3.00;;
1505;SDS011;744;51.436;7.356;2023-02-28T02:26:52;3.40;;;2.73;;
1505;SDS011;744;51.436;7.356;2023-02-28T02:40:14;2.97;;;2.70;;
1505;SDS011;744;51.436;7.356;2023-02-28T02:43:01;2.60;;;2.40;;
1505;SDS011;744;51.436;7.356;2023-02-28T02:45:48;2.77;;;1.97;;
1505;SDS011;744;51.436;7.356;2023-02-28T02:48:30;3.10;;;2.50;;
1505;SDS011;744;51.436;7.356;2023-02-28T02:51:01;4.60;;;3.13;;
1505;SDS011;744;51.436;7.356;2023-02-28T02:53:40;2.93;;;2.30;;
1505;SDS011;744;51.436;7.356;2023-02-28T02:56:17;7.53;;;2.67;;
1505;SDS011;744;51.436;7.356;2023-02-28T02:58:45;2.60;;;2.30;;
1505;SDS011;744;51.436;7.356;2023-02-28T03:01:16;4.40;;;2.47;;
1505;SDS011;744;51.436;7.356;2023-02-28T03:03:58;2.17;;;2.00;;
1505;SDS011;744;51.436;7.356;2023-02-28T03:06:28;3.00;;;2.30;;
1505;SDS011;744;51.436;7.356;2023-02-28T03:08:55;3.93;;;2.27;;
1505;SDS011;744;51.436;7.356;2023-02-28T03:11:22;3.17;;;2.57;;
1505;SDS011;744;51.436;7.356;2023-02-28T03:21:38;2.33;;;2.17;;
1505;SDS011;744;51.436;7.356;2023-02-28T03:24:10;2.33;;;2.10;;
1505;SDS011;744;51.436;7.356;2023-02-28T03:26:50;2.53;;;2.00;;
1505;SDS011;744;51.436;7.356;2023-02-28T03:32:00;3.07;;;2.10;;
1505;SDS011;744;51.436;7.356;2023-02-28T03:34:38;2.10;;;1.90;;
1505;SDS011;744;51.436;7.356;2023-02-28T03:37:14;2.70;;;2.50;;
1505;SDS011;744;51.436;7.356;2023-02-28T03:39:47;2.80;;;2.03;;
1505;SDS011;744;51.436;7.356;2023-02-28T03:42:20;5.80;;;1.93;;
1505;SDS011;744;51.436;7.356;2023-02-28T03:47:24;3.07;;;1.67;;
1505;SDS011;744;51.436;7.356;2023-02-28T03:50:18;2.80;;;1.80;;
1505;SDS011;744;51.436;7.356;2023-02-28T03:53:01;1.90;;;1.80;;
1505;SDS011;744;51.436;7.356;2023-02-28T03:55:36;2.20;;;2.00;;
1505;SDS011;744;51.436;7.356;2023-02-28T04:00:54;4.13;;;2.93;;
1505;SDS011;744;51.436;7.356;2023-02-28T04:03:34;4.47;;;3.90;;
1505;SDS011;744;51.436;7.356;2023-02-28T04:06:03;3.63;;;3.30;;
1505;SDS011;744;51.436;7.356;2023-02-28T04:08:31;3.50;;;3.20;;
1505;SDS011;744;51.436;7.356;2023-02-28T04:11:04;4.80;;;3.43;;
1505;SDS011;744;51.436;7.356;2023-02-28T04:13:42;3.80;;;2.73;;
1505;SDS011;744;51.436;7.356;2023-02-28T04:16:12;3.07;;;2.87;;
1505;SDS011;744;51.436;7.356;2023-02-28T04:18:57;3.73;;;3.03;;
1505;SDS011;744;51.436;7.356;2023-02-28T04:21:34;3.70;;;3.10;;
1505;SDS011;744;51.436;7.356;2023-02-28T04:24:05;2.63;;;2.43;;
1505;SDS011;744;51.436;7.356;2023-02-28T04:26:33;4.57;;;3.40;;
1505;SDS011;744;51.436;7.356;2023-02-28T04:29:05;2.93;;;2.73;;
1505;SDS011;744;51.436;7.356;2023-02-28T04:31:33;5.20;;;3.60;;
1505;SDS011;744;51.436;7.356;2023-02-28T04:34:00;2.77;;;2.57;;
1505;SDS011;744;51.436;7.356;2023-02-28T04:36:27;2.47;;;2.27;;
1505;SDS011;744;51.436;7.356;2023-02-28T04:38:54;1.97;;;1.87;;
1505;SDS011;744;51.436;7.356;2023-02-28T04:41:21;7.10;;;2.10;;
1505;SDS011;744;51.436;7.356;2023-02-28T04:43:49;2.93;;;2.73;;
1505;SDS011;744;51.436;7.356;2023-02-28T04:46:17;3.73;;;3.30;;
1505;SDS011;744;51.436;7.356;2023-02-28T04:48:44;2.97;;;2.73;;
1505;SDS011;744;51.436;7.356;2023-02-28T04:51:12;3.23;;;2.90;;
1505;SDS011;744;51.436;7.356;2023-02-28T04:53:40;3.50;;;3.20;;
1505;SDS011;744;51.436;7.356;2023-02-28T04:56:10;3.50;;;3.20;;
1505;SDS011;744;51.436;7.356;2023-02-28T04:58:39;6.63;;;3.47;;
1505;SDS011;744;51.436;7.356;2023-02-28T05:01:07;5.23;;;3.33;;
1505;SDS011;744;51.436;7.356;2023-02-28T05:03:53;6.17;;;4.57;;
1505;SDS011;744;51.436;7.356;2023-02-28T05:06:22;3.50;;;3.00;;
1505;SDS011;744;51.436;7.356;2023-02-28T05:08:50;3.77;;;3.17;;
1505;SDS011;744;51.436;7.356;2023-02-28T05:13:47;3.47;;;2.90;;
1505;SDS011;744;51.436;7.356;2023-02-28T05:16:15;3.53;;;3.13;;
1505;SDS011;744;51.436;7.356;2023-02-28T05:18:42;7.33;;;4.07;;
1505;SDS011;744;51.436;7.356;2023-02-28T05:21:29;3.10;;;2.80;;
1505;SDS011;744;51.436;7.356;2023-02-28T05:23:58;4.40;;;2.97;;
1505;SDS011;744;51.436;7.356;2023-02-28T05:26:27;3.80;;;2.30;;
1505;SDS011;744;51.436;7.356;2023-02-28T05:28:54;3.40;;;2.43;;
1505;SDS011;744;51.436;7.356;2023-02-28T05:31:22;3.20;;;2.90;;
1505;SDS011;744;51.436;7.356;2023-02-28T05:33:49;2.90;;;2.40;;
1505;SDS011;744;51.436;7.356;2023-02-28T05:36:16;2.73;;;2.53;;
1505;SDS011;744;51.436;7.356;2023-02-28T05:38:43;2.83;;;2.60;;
1505;SDS011;744;51.436;7.356;2023-02-28T05:41:13;4.47;;;3.30;;
1505;SDS011;744;51.436;7.356;2023-02-28T05:43:40;3.03;;;2.73;;
1505;SDS011;744;51.436;7.356;2023-02-28T05:46:07;5.37;;;3.00;;
1505;SDS011;744;51.436;7.356;2023-02-28T05:48:37;3.67;;;3.30;;
1505;SDS011;744;51.436;7.356;2023-02-28T05:51:05;3.50;;;2.73;;
1505;SDS011;744;51.436;7.356;2023-02-28T05:53:33;5.83;;;4.30;;
1505;SDS011;744;51.436;7.356;2023-02-28T05:56:00;5.23;;;3.20;;
1505;SDS011;744;51.436;7.356;2023-02-28T05:58:27;5.70;;;5.30;;
1505;SDS011;744;51.436;7.356;2023-02-28T06:01:00;3.40;;;3.07;;
1505;SDS011;744;51.436;7.356;2023-02-28T06:03:56;6.50;;;3.10;;
1505;SDS011;744;51.436;7.356;2023-02-28T06:06:25;7.33;;;4.13;;
1505;SDS011;744;51.436;7.356;2023-02-28T06:08:52;5.63;;;3.63;;
1505;SDS011;744;51.436;7.356;2023-02-28T06:11:20;5.53;;;3.67;;
1505;SDS011;744;51.436;7.356;2023-02-28T06:13:47;4.50;;;2.80;;
1505;SDS011;744;51.436;7.356;2023-02-28T06:16:14;4.17;;;3.77;;
1505;SDS011;744;51.436;7.356;2023-02-28T06:18:41;5.37;;;3.43;;
1505;SDS011;744;51.436;7.356;2023-02-28T06:21:08;5.07;;;3.67;;
1505;SDS011;744;51.436;7.356;2023-02-28T06:23:35;3.73;;;2.53;;
1505;SDS011;744;51.436;7.356;2023-02-28T06:26:02;3.40;;;3.20;;
1505;SDS011;744;51.436;7.356;2023-02-28T06:28:28;3.87;;;3.57;;
1505;SDS011;744;51.436;7.356;2023-02-28T06:30:55;8.03;;;3.80;;
1505;SDS011;744;51.436;7.356;2023-02-28T06:33:22;4.07;;;2.70;;
1505;SDS011;744;51.436;7.356;2023-02-28T06:35:52;4.60;;;3.37;;
1505;SDS011;744;51.436;7.356;2023-02-28T06:38:19;4.23;;;3.40;;
1505;SDS011;744;51.436;7.356;2023-02-28T06:40:52;3.20;;;2.90;;
1505;SDS011;744;51.436;7.356;2023-02-28T06:43:20;3.67;;;3.37;;
1505;SDS011;744;51.436;7.356;2023-02-28T06:45:47;3.73;;;3.00;;
1505;SDS011;744;51.436;7.356;2023-02-28T06:48:14;5.90;;;3.80;;
1505;SDS011;744;51.436;7.356;2023-02-28T06:50:41;3.50;;;2.83;;
1505;SDS011;744;51.436;7.356;2023-02-28T06:53:07;4.90;;;3.03;;
1505;SDS011;744;51.436;7.356;2023-02-28T06:55:34;4.20;;;3.70;;
1505;SDS011;744;51.436;7.356;2023-02-28T06:58:05;5.80;;;3.63;;
1505;SDS011;744;51.436;7.356;2023-02-28T07:00:41;5.10;;;2.63;;
1505;SDS011;744;51.436;7.356;2023-02-28T07:03:08;6.83;;;4.00;;
1505;SDS011;744;51.436;7.356;2023-02-28T07:05:36;4.53;;;3.70;;
1505;SDS011;744;51.436;7.356;2023-02-28T07:08:03;4.00;;;3.33;;
1505;SDS011;744;51.436;7.356;2023-02-28T07:10:32;5.40;;;3.20;;
1505;SDS011;744;51.436;7.356;2023-02-28T07:13:00;5.90;;;3.13;;
1505;SDS011;744;51.436;7.356;2023-02-28T07:15:27;4.10;;;3.10;;
1505;SDS011;744;51.436;7.356;2023-02-28T07:17:53;4.27;;;3.87;;
1505;SDS011;744;51.436;7.356;2023-02-28T07:20:20;4.50;;;2.90;;
1505;SDS011;744;51.436;7.356;2023-02-28T07:22:47;3.80;;;3.50;;
1505;SDS011;744;51.436;7.356;2023-02-28T07:25:27;4.80;;;3.20;;
1505;SDS011;744;51.436;7.356;2023-02-28T07:27:55;5.30;;;3.50;;
1505;SDS011;744;51.436;7.356;2023-02-28T07:30:22;3.13;;;2.83;;
1505;SDS011;744;51.436;7.356;2023-02-28T07:32:49;6.20;;;2.97;;
1505;SDS011;744;51.436;7.356;2023-02-28T07:35:16;8.33;;;4.23;;
1505;SDS011;744;51.436;7.356;2023-02-28T07:37:43;3.77;;;3.00;;
1505;SDS011;744;51.436;7.356;2023-02-28T07:40:10;4.10;;;2.83;;
1505;SDS011;744;51.436;7.356;2023-02-28T07:42:38;4.33;;;3.93;;
1505;SDS011;744;51.436;7.356;2023-02-28T07:45:06;6.03;;;2.70;;
1505;SDS011;744;51.436;7.356;2023-02-28T07:47:38;3.47;;;3.17;;
1505;SDS011;744;51.436;7.356;2023-02-28T07:50:06;5.17;;;4.03;;
1505;SDS011;744;51.436;7.356;2023-02-28T07:52:33;7.00;;;3.00;;
1505;SDS011;744;51.436;7.356;2023-02-28T07:55:00;4.10;;;3.20;;
1505;SDS011;744;51.436;7.356;2023-02-28T07:57:27;5.40;;;3.17;;
1505;SDS011;744;51.436;7.356;2023-02-28T07:59:54;4.07;;;3.27;;
1505;SDS011;744;51.436;7.356;2023-02-28T08:02:20;3.67;;;2.83;;
1505;SDS011;744;51.436;7.356;2023-02-28T08:04:47;3.83;;;3.33;;
1505;SDS011;744;51.436;7.356;2023-02-28T08:07:16;5.87;;;3.90;;
1505;SDS011;744;51.436;7.356;2023-02-28T08:09:43;4.10;;;2.90;;
1505;SDS011;744;51.436;7.356;2023-02-28T08:12:11;3.83;;;3.53;;
1505;SDS011;744;51.436;7.356;2023-02-28T08:14:38;6.50;;;3.80;;
1505;SDS011;744;51.436;7.356;2023-02-28T08:17:05;6.60;;;3.93;;
1505;SDS011;744;51.436;7.356;2023-02-28T08:19:32;4.30;;;3.83;;
1505;SDS011;744;51.436;7.356;2023-02-28T08:21:59;4.10;;;3.37;;
1505;SDS011;744;51.436;7.356;2023-02-28T08:24:26;4.47;;;2.73;;
1505;SDS011;744;51.436;7.356;2023-02-28T08:26:53;10.07;;;3.40;;
1505;SDS011;744;51.436;7.356;2023-02-28T08:29:19;3.97;;;2.87;;
1505;SDS011;744;51.436;7.356;2023-02-28T08:31:46;3.07;;;2.63;;
1505;SDS011;744;51.436;7.356;2023-02-28T08:34:14;6.10;;;3.10;;
1505;SDS011;744;51.436;7.356;2023-02-28T08:39:30;4.20;;;3.80;;
1505;SDS011;744;51.436;7.356;2023-02-28T08:42:01;8.73;;;3.57;;
1505;SDS011;744;51.436;7.356;2023-02-28T08:44:33;3.50;;;3.27;;
1505;SDS011;744;51.436;7.356;2023-02-28T08:47:00;3.73;;;3.43;;
1505;SDS011;744;51.436;7.356;2023-02-28T08:49:27;2.63;;;2.43;;
1505;SDS011;744;51.436;7.356;2023-02-28T08:51:54;3.30;;;3.00;;
1505;SDS011;744;51.436;7.356;2023-02-28T08:54:23;3.13;;;2.87;;
1505;SDS011;744;51.436;7.356;2023-02-28T08:56:50;3.00;;;2.73;;
1505;SDS011;744;51.436;7.356;2023-02-28T08:59:17;2.53;;;2.33;;
1505;SDS011;744;51.436;7.356;2023-02-28T09:01:44;3.27;;;3.07;;
1505;SDS011;744;51.436;7.356;2023-02-28T09:04:11;5.13;;;3.13;;
1505;SDS011;744;51.436;7.356;2023-02-28T09:06:42;2.60;;;2.40;;
1505;SDS011;744;51.436;7.356;2023-02-28T09:09:10;5.80;;;2.93;;
1505;SDS011;744;51.436;7.356;2023-02-28T09:11:37;4.50;;;2.67;;
1505;SDS011;744;51.436;7.356;2023-02-28T09:14:04;2.80;;;2.57;;
1505;SDS011;744;51.436;7.356;2023-02-28T09:16:31;5.37;;;2.63;;
1505;SDS011;744;51.436;7.356;2023-02-28T09:18:59;2.20;;;2.00;;
1505;SDS011;744;51.436;7.356;2023-02-28T09:21:26;3.40;;;2.47;;
1505;SDS011;744;51.436;7.356;2023-02-28T09:23:54;3.60;;;2.80;;
1505;SDS011;744;51.436;7.356;2023-02-28T09:26:22;8.20;;;2.77;;
1505;SDS011;744;51.436;7.356;2023-02-28T09:28:51;3.80;;;3.27;;
1505;SDS011;744;51.436;7.356;2023-02-28T09:31:23;8.80;;;5.60;;
1505;SDS011;744;51.436;7.356;2023-02-28T09:33:52;5.00;;;4.07;;
1505;SDS011;744;51.436;7.356;2023-02-28T09:36:20;4.63;;;3.53;;
1505;SDS011;744;51.436;7.356;2023-02-28T09:38:50;3.80;;;3.50;;
1505;SDS011;744;51.436;7.356;2023-02-28T09:41:19;2.87;;;2.57;;
1505;SDS011;744;51.436;7.356;2023-02-28T09:43:55;2.60;;;2.30;;
1505;SDS011;744;51.436;7.356;2023-02-28T09:49:05;2.63;;;1.90;;
1505;SDS011;744;51.436;7.356;2023-02-28T09:51:50;2.30;;;2.10;;
1505;SDS011;744;51.436;7.356;2023-02-28T09:54:18;2.03;;;1.90;;
1505;SDS011;744;51.436;7.356;2023-02-28T09:59:44;1.70;;;1.57;;
1505;SDS011;744;51.436;7.356;2023-02-28T10:05:23;1.80;;;1.70;;
1505;SDS011;744;51.436;7.356;2023-02-28T10:08:02;1.80;;;1.70;;
1505;SDS011;744;51.436;7.356;2023-02-28T10:15:50;3.37;;;1.67;;
1505;SDS011;744;51.436;7.356;2023-02-28T10:18:21;1.93;;;1.27;;
1505;SDS011;744;51.436;7.356;2023-02-28T10:20:51;2.20;;;1.30;;
1505;SDS011;744;51.436;7.356;2023-02-28T10:26:13;1.40;;;1.30;;
1505;SDS011;744;51.436;7.356;2023-02-28T10:28:42;1.27;;;1.17;;
1505;SDS011;744;51.436;7.356;2023-02-28T10:31:14;5.03;;;1.47;;
1505;SDS011;744;51.436;7.356;2023-02-28T10:33:45;1.50;;;1.40;;
1505;SDS011;744;51.436;7.356;2023-02-28T10:36:17;2.30;;;1.30;;
1505;SDS011;744;51.436;7.356;2023-02-28T10:38:46;2.83;;;1.00;;
1505;SDS011;744;51.436;7.356;2023-02-28T10:41:31;1.43;;;0.80;;
1505;SDS011;744;51.436;7.356;2023-02-28T10:44:21;1.60;;;1.50;;
1505;SDS011;744;51.436;7.356;2023-02-28T10:46:49;1.37;;;1.03;;
1505;SDS011;744;51.436;7.356;2023-02-28T10:49:21;1.30;;;1.10;;
1505;SDS011;744;51.436;7.356;2023-02-28T10:51:54;2.60;;;1.57;;
1505;SDS011;744;51.436;7.356;2023-02-28T10:54:32;1.60;;;1.50;;
1505;SDS011;744;51.436;7.356;2023-02-28T10:57:05;3.63;;;1.23;;
1505;SDS011;744;51.436;7.356;2023-02-28T10:59:32;2.93;;;1.60;;
1505;SDS011;744;51.436;7.356;2023-02-28T11:01:59;1.67;;;1.40;;
1505;SDS011;744;51.436;7.356;2023-02-28T11:06:59;1.60;;;1.50;;
1505;SDS011;744;51.436;7.356;2023-02-28T11:09:29;1.60;;;1.30;;
1505;SDS011;744;51.436;7.356;2023-02-28T11:12:02;1.10;;;0.90;;
1505;SDS011;744;51.436;7.356;2023-02-28T11:14:35;1.60;;;1.50;;
1505;SDS011;744;51.436;7.356;2023-02-28T11:17:24;4.10;;;1.70;;
1505;SDS011;744;51.436;7.356;2023-02-28T11:19:55;2.10;;;1.60;;
1505;SDS011;744;51.436;7.356;2023-02-28T11:22:28;1.43;;;1.33;;
1505;SDS011;744;51.436;7.356;2023-02-28T11:25:00;1.93;;;1.53;;
1505;SDS011;744;51.436;7.356;2023-02-28T11:30:00;1.40;;;1.30;;
1505;SDS011;744;51.436;7.356;2023-02-28T11:32:28;1.80;;;1.63;;
1505;SDS011;744;51.436;7.356;2023-02-28T11:35:17;2.00;;;1.40;;
1505;SDS011;744;51.436;7.356;2023-02-28T11:37:53;1.60;;;1.50;;
1505;SDS011;744;51.436;7.356;2023-02-28T11:40:26;2.40;;;1.30;;
1505;SDS011;744;51.436;7.356;2023-02-28T11:43:06;1.63;;;1.53;;
1505;SDS011;744;51.436;7.356;2023-02-28T11:48:27;1.20;;;1.07;;
1505;SDS011;744;51.436;7.356;2023-02-28T11:51:27;2.63;;;1.70;;
1505;SDS011;744;51.436;7.356;2023-02-28T11:56:55;1.63;;;1.53;;
1505;SDS011;744;51.436;7.356;2023-02-28T11:59:39;1.97;;;1.40;;
1505;SDS011;744;51.436;7.356;2023-02-28T12:16:56;2.17;;;2.07;;
1505;SDS011;744;51.436;7.356;2023-02-28T12:22:28;1.70;;;1.60;;
1505;SDS011;744;51.436;7.356;2023-02-28T12:28:16;2.30;;;1.63;;
1505;SDS011;744;51.436;7.356;2023-02-28T12:30:49;3.23;;;1.60;;
1505;SDS011;744;51.436;7.356;2023-02-28T12:33:32;1.33;;;1.33;;
1505;SDS011;744;51.436;7.356;2023-02-28T12:36:05;1.60;;;1.50;;
1505;SDS011;744;51.436;7.356;2023-02-28T12:38:43;1.30;;;1.20;;
1505;SDS011;744;51.436;7.356;2023-02-28T12:41:22;1.60;;;1.50;;
1505;SDS011;744;51.436;7.356;2023-02-28T12:43:55;1.60;;;1.50;;
1505;SDS011;744;51.436;7.356;2023-02-28T12:46:47;3.60;;;1.43;;
1505;SDS011;744;51.436;7.356;2023-02-28T12:49:28;2.30;;;2.10;;
1505;SDS011;744;51.436;7.356;2023-02-28T12:52:13;2.47;;;1.57;;
1505;SDS011;744;51.436;7.356;2023-02-28T12:54:56;3.30;;;2.07;;
1505;SDS011;744;51.436;7.356;2023-02-28T13:00:13;2.60;;;2.33;;
1505;SDS011;744;51.436;7.356;2023-02-28T13:08:22;2.00;;;1.80;;
1505;SDS011;744;51.436;7.356;2023-02-28T13:10:57;2.87;;;2.00;;
1505;SDS011;744;51.436;7.356;2023-02-28T13:13:24;3.33;;;2.40;;
1505;SDS011;744;51.436;7.356;2023-02-28T13:16:05;3.10;;;2.73;;
1505;SDS011;744;51.436;7.356;2023-02-28T13:18:35;2.17;;;1.97;;
1505;SDS011;744;51.436;7.356;2023-02-28T13:21:06;2.30;;;2.10;;
1505;SDS011;744;51.436;7.356;2023-02-28T13:23:36;2.47;;;2.27;;
1505;SDS011;744;51.436;7.356;2023-02-28T13:26:07;2.17;;;1.97;;
1505;SDS011;744;51.436;7.356;2023-02-28T13:31:20;2.17;;;1.97;;
1505;SDS011;744;51.436;7.356;2023-02-28T13:52:18;2.17;;;1.97;;
1505;SDS011;744;51.436;7.356;2023-02-28T14:03:45;3.07;;;2.77;;
1505;SDS011;744;51.436;7.356;2023-02-28T14:11:39;2.10;;;2.00;;
1505;SDS011;744;51.436;7.356;2023-02-28T14:14:08;2.03;;;1.93;;
1505;SDS011;744;51.436;7.356;2023-02-28T14:16:55;2.60;;;2.40;;
1505;SDS011;744;51.436;7.356;2023-02-28T14:19:27;5.00;;;2.20;;
1505;SDS011;744;51.436;7.356;2023-02-28T14:27:32;2.37;;;2.27;;
1505;SDS011;744;51.436;7.356;2023-02-28T14:30:16;2.73;;;2.53;;
1505;SDS011;744;51.436;7.356;2023-02-28T14:33:14;2.37;;;2.10;;
1505;SDS011;744;51.436;7.356;2023-02-28T14:39:06;2.90;;;2.70;;
1505;SDS011;744;51.436;7.356;2023-02-28T14:41:19;3.30;;;3.00;;
1505;SDS011;744;51.436;7.356;2023-02-28T14:43:58;2.30;;;2.10;;
1505;SDS011;744;51.436;7.356;2023-02-28T14:46:28;2.50;;;2.10;;
1505;SDS011;744;51.436;7.356;2023-02-28T14:49:03;4.20;;;3.20;;
1505;SDS011;744;51.436;7.356;2023-02-28T14:51:31;2.33;;;2.13;;
1505;SDS011;744;51.436;7.356;2023-02-28T14:54:00;2.67;;;2.47;;
1505;SDS011;744;51.436;7.356;2023-02-28T14:56:35;3.10;;;2.80;;
1505;SDS011;744;51.436;7.356;2023-02-28T14:59:05;3.53;;;3.30;;
1505;SDS011;744;51.436;7.356;2023-02-28T15:01:50;3.00;;;2.80;;
1505;SDS011;744;51.436;7.356;2023-02-28T15:04:26;3.50;;;2.63;;
1505;SDS011;744;51.436;7.356;2023-02-28T15:07:17;4.97;;;2.97;;
1505;SDS011;744;51.436;7.356;2023-02-28T15:09:40;2.20;;;2.10;;
1505;SDS011;744;51.436;7.356;2023-02-28T15:12:07;3.17;;;2.87;;
1505;SDS011;744;51.436;7.356;2023-02-28T15:14:42;4.67;;;3.17;;
1505;SDS011;744;51.436;7.356;2023-02-28T15:17:11;2.70;;;2.50;;
1505;SDS011;744;51.436;7.356;2023-02-28T15:19:46;2.43;;;2.10;;
1505;SDS011;744;51.436;7.356;2023-02-28T15:22:18;3.77;;;2.93;;
1505;SDS011;744;51.436;7.356;2023-02-28T15:24:50;3.20;;;2.93;;
1505;SDS011;744;51.436;7.356;2023-02-28T15:27:23;3.23;;;2.60;;
1505;SDS011;744;51.436;7.356;2023-02-28T15:29:57;5.13;;;3.30;;
1505;SDS011;744;51.436;7.356;2023-02-28T15:34:58;5.43;;;2.70;;
1505;SDS011;744;51.436;7.356;2023-02-28T15:37:47;3.30;;;2.30;;
1505;SDS011;744;51.436;7.356;2023-02-28T15:40:25;5.30;;;3.20;;
1505;SDS011;744;51.436;7.356;2023-02-28T15:43:16;2.50;;;2.30;;
1505;SDS011;744;51.436;7.356;2023-02-28T15:45:51;2.87;;;2.60;;
1505;SDS011;744;51.436;7.356;2023-02-28T15:48:28;2.90;;;2.70;;
1505;SDS011;744;51.436;7.356;2023-02-28T15:51:02;3.60;;;3.30;;
1505;SDS011;744;51.436;7.356;2023-02-28T15:53:43;4.13;;;3.83;;
1505;SDS011;744;51.436;7.356;2023-02-28T15:56:32;4.93;;;3.80;;
1505;SDS011;744;51.436;7.356;2023-02-28T15:59:03;3.37;;;3.13;;
1505;SDS011;744;51.436;7.356;2023-02-28T16:01:35;4.53;;;3.63;;
1505;SDS011;744;51.436;7.356;2023-02-28T16:04:05;3.80;;;3.50;;
1505;SDS011;744;51.436;7.356;2023-02-28T16:06:39;4.40;;;4.00;;
1505;SDS011;744;51.436;7.356;2023-02-28T16:09:27;4.20;;;3.90;;
1505;SDS011;744;51.436;7.356;2023-02-28T16:11:55;4.23;;;3.30;;
1505;SDS011;744;51.436;7.356;2023-02-28T16:14:28;2.73;;;2.30;;
1505;SDS011;744;51.436;7.356;2023-02-28T16:17:02;3.07;;;2.43;;
1505;SDS011;744;51.436;7.356;2023-02-28T16:19:31;3.30;;;2.90;;
1505;SDS011;744;51.436;7.356;2023-02-28T16:21:59;3.27;;;2.97;;
1505;SDS011;744;51.436;7.356;2023-02-28T16:24:27;2.10;;;2.00;;
1505;SDS011;744;51.436;7.356;2023-02-28T16:26:54;2.77;;;2.40;;
1505;SDS011;744;51.436;7.356;2023-02-28T16:29:23;3.17;;;2.53;;
1505;SDS011;744;51.436;7.356;2023-02-28T16:31:53;2.77;;;2.57;;
1505;SDS011;744;51.436;7.356;2023-02-28T16:34:20;3.10;;;2.80;;
1505;SDS011;744;51.436;7.356;2023-02-28T16:36:48;5.63;;;2.80;;
1505;SDS011;744;51.436;7.356;2023-02-28T16:39:15;2.50;;;2.30;;
1505;SDS011;744;51.436;7.356;2023-02-28T16:41:42;2.80;;;2.60;;
1505;SDS011;744;51.436;7.356;2023-02-28T16:44:13;3.43;;;3.13;;
1505;SDS011;744;51.436;7.356;2023-02-28T16:46:47;3.00;;;2.37;;
1505;SDS011;744;51.436;7.356;2023-02-28T16:49:13;5.97;;;2.83;;
1505;SDS011;744;51.436;7.356;2023-02-28T16:51:40;2.57;;;2.37;;
1505;SDS011;744;51.436;7.356;2023-02-28T16:54:07;3.37;;;2.57;;
1505;SDS011;744;51.436;7.356;2023-02-28T16:56:34;2.40;;;2.20;;
1505;SDS011;744;51.436;7.356;2023-02-28T16:59:01;3.30;;;2.97;;
1505;SDS011;744;51.436;7.356;2023-02-28T17:01:28;2.63;;;2.43;;
1505;SDS011;744;51.436;7.356;2023-02-28T17:03:56;2.70;;;2.40;;
1505;SDS011;744;51.436;7.356;2023-02-28T17:06:26;5.20;;;2.53;;
1505;SDS011;744;51.436;7.356;2023-02-28T17:08:55;4.97;;;2.73;;
1505;SDS011;744;51.436;7.356;2023-02-28T17:11:24;3.20;;;2.90;;
1505;SDS011;744;51.436;7.356;2023-02-28T17:13:51;4.50;;;3.20;;
1505;SDS011;744;51.436;7.356;2023-02-28T17:19:12;4.60;;;3.60;;
1505;SDS011;744;51.436;7.356;2023-02-28T17:21:41;2.50;;;2.30;;
1505;SDS011;744;51.436;7.356;2023-02-28T17:24:09;4.80;;;3.37;;
1505;SDS011;744;51.436;7.356;2023-02-28T17:26:44;2.87;;;2.57;;
1505;SDS011;744;51.436;7.356;2023-02-28T17:29:19;3.13;;;2.93;;
1505;SDS011;744;51.436;7.356;2023-02-28T17:31:47;6.33;;;3.40;;
1505;SDS011;744;51.436;7.356;2023-02-28T17:34:14;6.83;;;4.17;;
1505;SDS011;744;51.436;7.356;2023-02-28T17:36:46;4.40;;;4.00;;
1505;SDS011;744;51.436;7.356;2023-02-28T17:39:15;3.80;;;3.30;;
1505;SDS011;744;51.436;7.356;2023-02-28T17:41:53;3.10;;;2.80;;
1505;SDS011;744;51.436;7.356;2023-02-28T17:44:21;3.90;;;3.47;;
1505;SDS011;744;51.436;7.356;2023-02-28T17:46:50;4.90;;;3.40;;
1505;SDS011;744;51.436;7.356;2023-02-28T17:49:18;5.80;;;3.90;;
1505;SDS011;744;51.436;7.356;2023-02-28T17:51:45;6.73;;;4.73;;
1505;SDS011;744;51.436;7.356;2023-02-28T17:54:13;5.80;;;4.70;;
1505;SDS011;744;51.436;7.356;2023-02-28T17:56:41;5.53;;;4.40;;
1505;SDS011;744;51.436;7.356;2023-02-28T17:59:10;4.80;;;4.40;;
1505;SDS011;744;51.436;7.356;2023-02-28T18:01:38;6.50;;;5.10;;
1505;SDS011;744;51.436;7.356;2023-02-28T18:04:05;6.20;;;5.70;;
1505;SDS011;744;51.436;7.356;2023-02-28T18:06:43;4.30;;;3.90;;
1505;SDS011;744;51.436;7.356;2023-02-28T18:09:20;4.87;;;4.40;;
1505;SDS011;744;51.436;7.356;2023-02-28T18:11:49;5.83;;;5.00;;
1505;SDS011;744;51.436;7.356;2023-02-28T18:14:17;5.80;;;4.93;;
1505;SDS011;744;51.436;7.356;2023-02-28T18:16:45;9.80;;;4.33;;
1505;SDS011;744;51.436;7.356;2023-02-28T18:19:12;4.83;;;4.43;;